Rockford, IL (61103)

10:43 AM CDT on October 25, 2014 (GMT -0500)
KILROCKF11 | Change Station
CLOSE
Current Station
Personal Weather Station
Location: Rockford, IL
Elevation: 879 ft
Nearby Weather Stations

Elev 879 ft 42.29 °N, 89.01 °W | Updated 13 minutes ago

Clear
Clear
62.6 °F
Feels Like 62.6 °F
N
3.0
Wind Variable Wind from NNW
Gusts 9.0 mph

Today
High -- | Low -- °F
--% Chance of Precip.
Yesterday
High -- | Low -- °F
Precip. -- in
7:20 AM 5:59 PM
Waxing Crescent, 3% visible
Pressure 30.00 in
Visibility 6.0 miles
Clouds Clear
Dew Point 51 °F
Humidity 65%
Rainfall 0.00 in
Snow Depth Not available.
UV 2 out of 12
Pollen 1.60 out of 12
Ozone Good
PM2.5 Moderate
Flu Activity No Activity
METAR KRFD 251454Z 31012KT 6SM HZ CLR 17/10 A3000 RMK AO2 SLP157 T01670100 51011

More Conditions Fewer Conditions

Pressure 30.00 in
Visibility 6.0 miles
Clouds Clear
Dew Point 51 °F
Humidity 65%
Rainfall 0.00 in
Snow Depth Not available.
UV 2 out of 12
Pollen 1.60 out of 12
Ozone Good
PM2.5 Moderate
Flu Activity No Activity
METAR KRFD 251454Z 31012KT 6SM HZ CLR 17/10 A3000 RMK AO2 SLP157 T01670100 51011

More Conditions Fewer Conditions

10-Day Weather Forecast

Almanac

Astronomy

Oct. 25, 2014 Rise Set
Actual Time 7:20 AM CDT 5:59 PM CDT
Civil Twilight 6:52 AM CDT 6:27 PM CDT
Nautical Twilight 6:19 AM CDT 7:00 PM CDT
Astronomical Twilight 5:46 AM CDT 7:33 PM CDT
Moon 9:01 AM CDT 7:20 PM CDT
Length of Visible Light 11h 35m
Length of Day
10h 38m
Tomorrow will be 2m 38s shorter.
Waxing Crescent, 3% of the Moon is Illuminated
Today
Waxing Crescent
Oct 30
First Quarter
Nov 6
Full
Nov 14
Last Quarter
Nov 22
New

Today's Extremes

State Highs State Lows

Community

WunderPhotos

Upload Photos

1,764,879 photos uploaded!

Nearby

Air Quality

  Air Quality AQ Index Pollutant
Yesterday Good
PM2.5
Yesterday Good
OZONE
Current Moderate
PM2.5
Current Good
OZONE
Saturday Good
PM2.5
Sunday Good
PM2.5
Monday Good
PM2.5
Tuesday Good
PM2.5
Wednesday Good
PM2.5

Snow Depth

Station Depth Elevation
No new snow has been reported.

Earthquake Activity

City Distance Mag. Time & Date
No recent earthquake activity has been reported nearby.
Minimum magnitude displayed is 2.5.

Coastal Water Temperatures

Place Temperature
No Stations Reporting

Nearby Weather Stations